Mattawa, Canada
Current Conditions -  °F | °C
As of 12:00 AM on Thursday 27 Nov 2014 (Local Time) from CYYB Reporting Station
Overcast Overcast  
Wind Chill:   Ceiling: 900
Heat Index: 18°   Visibility: 9mi
Dew Point: 14°   Wind: 6mph
Humidity: 86%   Direction: 80°E
Pressure: 30.07"   Gusts: NA
Location:  46.32°N, 78.7°W
Report Text: CYYB 270500Z AUTO 08005KT 9SM OVC009 M08/M10 A3007 RMK SLP209
Loading
Personal Weather Stations






























Interactive Weather Map New forecast layout! Learn more

10-Day Weather Forecast

Advertisements
Track Severe Weather on mobile